createdAt,value
2023-04-10T00:00:38.367Z,8.93
2023-04-10T00:03:08.606Z,8.93
2023-04-10T00:05:38.756Z,8.95
2023-04-10T00:08:08.600Z,8.93
2023-04-10T00:10:38.478Z,8.93
2023-04-10T00:13:10.938Z,8.93
2023-04-10T00:15:40.967Z,8.92
2023-04-10T00:18:10.932Z,8.92
2023-04-10T00:20:41.690Z,8.91
2023-04-10T00:23:11.712Z,8.92
2023-04-10T00:25:41.758Z,8.92
2023-04-10T00:28:14.669Z,8.91
2023-04-10T00:30:44.558Z,8.89
2023-04-10T00:33:16.693Z,8.88
2023-04-10T00:35:46.603Z,8.87
2023-04-10T00:38:16.989Z,8.85
2023-04-10T00:40:46.831Z,8.83
2023-04-10T00:43:21.707Z,8.82
2023-04-10T00:45:51.756Z,8.81
2023-04-10T00:48:21.833Z,8.78
2023-04-10T00:50:51.778Z,8.78
2023-04-10T00:53:21.624Z,8.76
2023-04-10T00:55:53.348Z,8.73
2023-04-10T00:58:27.029Z,8.70
2023-04-10T01:00:57.355Z,8.66
2023-04-10T01:03:28.364Z,8.64
2023-04-10T01:06:08.825Z,8.61
2023-04-10T01:08:48.690Z,8.60
2023-04-10T01:11:27.064Z,8.58
2023-04-10T01:14:08.307Z,8.57
2023-04-10T01:16:48.454Z,8.54
2023-04-10T01:19:29.233Z,8.52
2023-04-10T01:21:59.732Z,8.50
2023-04-10T01:24:44.743Z,8.47
2023-04-10T01:27:31.315Z,8.44
2023-04-10T01:30:05.729Z,8.40
2023-04-10T01:32:38.907Z,8.36
2023-04-10T01:35:11.614Z,8.34
2023-04-10T01:37:46.007Z,8.33
2023-04-10T01:40:21.791Z,8.30
2023-04-10T01:42:55.677Z,8.29
2023-04-10T01:45:31.904Z,8.28
2023-04-10T01:48:01.968Z,8.24
2023-04-10T01:50:33.453Z,8.23
2023-04-10T01:53:05.113Z,8.20
2023-04-10T01:55:37.034Z,8.18
2023-04-10T01:58:07.792Z,8.13
2023-04-10T02:00:44.494Z,8.12
2023-04-10T02:03:14.802Z,8.11
2023-04-10T02:05:55.534Z,8.11
2023-04-10T02:08:44.023Z,8.10
2023-04-10T02:11:21.438Z,8.09
2023-04-10T02:13:53.678Z,8.06
2023-04-10T02:16:27.885Z,8.03
2023-04-10T02:18:59.366Z,8.02
2023-04-10T02:21:30.095Z,8.01
2023-04-10T02:24:01.406Z,7.98
2023-04-10T02:26:31.338Z,7.96
2023-04-10T02:29:01.290Z,7.93
2023-04-10T02:31:36.792Z,7.92
2023-04-10T02:34:07.448Z,7.89
2023-04-10T02:36:38.228Z,7.88
2023-04-10T02:39:12.816Z,7.85
2023-04-10T02:41:42.657Z,7.79
2023-04-10T02:44:12.511Z,7.76
2023-04-10T02:46:44.993Z,7.75
2023-04-10T02:49:14.887Z,7.74
2023-04-10T02:51:45.480Z,7.74
2023-04-10T02:54:15.638Z,7.71
2023-04-10T02:56:45.429Z,7.69
2023-04-10T02:59:15.878Z,7.68
2023-04-10T03:01:49.663Z,7.68
2023-04-10T03:04:19.834Z,7.68
2023-04-10T03:06:49.915Z,7.68
2023-04-10T03:09:19.737Z,7.68
2023-04-10T03:11:49.639Z,7.65
2023-04-10T03:14:20.026Z,7.65
2023-04-10T03:16:52.511Z,7.65
2023-04-10T03:19:22.383Z,7.67
2023-04-10T03:21:52.640Z,7.67
2023-04-10T03:24:24.285Z,7.68
2023-04-10T03:26:54.129Z,7.67
2023-04-10T03:29:23.998Z,7.68
2023-04-10T03:31:57.664Z,7.69
2023-04-10T03:34:27.892Z,7.69
2023-04-10T03:36:57.742Z,7.70
2023-04-10T03:39:32.153Z,7.71
2023-04-10T03:42:01.973Z,7.70
2023-04-10T03:44:31.955Z,7.68
2023-04-10T03:47:04.507Z,7.68
2023-04-10T03:49:34.740Z,7.67
2023-04-10T03:52:04.815Z,7.67
2023-04-10T03:54:37.811Z,7.64
2023-04-10T03:57:08.058Z,7.60
2023-04-10T03:59:38.938Z,7.58
2023-04-10T04:02:12.569Z,7.54
2023-04-10T04:04:42.938Z,7.49
2023-04-10T04:07:13.982Z,7.47
2023-04-10T04:09:44.031Z,7.45
2023-04-10T04:12:13.850Z,7.43
2023-04-10T04:14:44.969Z,7.41
2023-04-10T04:17:17.372Z,7.39
2023-04-10T04:19:48.770Z,7.36
2023-04-10T04:22:18.691Z,7.32
2023-04-10T04:24:48.470Z,7.31
2023-04-10T04:27:18.301Z,7.28
2023-04-10T04:29:48.157Z,7.28
2023-04-10T04:32:21.013Z,7.28
2023-04-10T04:34:50.935Z,7.28
2023-04-10T04:37:20.843Z,7.28
2023-04-10T04:39:50.941Z,7.27
2023-04-10T04:42:20.805Z,7.28
2023-04-10T04:44:52.619Z,7.30
2023-04-10T04:47:25.392Z,7.33
2023-04-10T04:49:55.311Z,7.32
2023-04-10T04:52:26.589Z,7.31
2023-04-10T04:54:56.397Z,7.33
2023-04-10T04:57:26.321Z,7.35
2023-04-10T04:59:56.169Z,7.36
2023-04-10T05:02:29.046Z,7.39
2023-04-10T05:04:59.057Z,7.39
2023-04-10T05:07:28.902Z,7.42
2023-04-10T05:09:58.934Z,7.46
2023-04-10T05:12:28.770Z,7.51
2023-04-10T05:15:00.871Z,7.53
2023-04-10T05:17:33.442Z,7.58
2023-04-10T05:20:03.557Z,7.62
2023-04-10T05:22:34.085Z,7.67
2023-04-10T05:25:04.030Z,7.72
2023-04-10T05:27:33.841Z,7.76
2023-04-10T05:30:04.835Z,7.79
2023-04-10T05:32:37.298Z,7.82
2023-04-10T05:35:07.910Z,7.90
2023-04-10T05:37:40.360Z,7.93
2023-04-10T05:40:12.513Z,7.98
2023-04-10T05:42:42.342Z,8.03
2023-04-10T05:45:15.315Z,8.09
2023-04-10T05:47:47.923Z,8.13
2023-04-10T05:50:21.523Z,8.17
2023-04-10T05:52:55.096Z,8.22
2023-04-10T05:55:28.005Z,8.26
2023-04-10T05:58:01.211Z,8.32
2023-04-10T06:00:32.844Z,8.37
2023-04-10T06:03:06.402Z,8.43
2023-04-10T06:05:36.495Z,8.49
2023-04-10T06:08:06.773Z,8.55
2023-04-10T06:10:36.990Z,8.63
2023-04-10T06:13:11.016Z,8.73
2023-04-10T06:15:41.233Z,8.84
2023-04-10T06:18:13.753Z,8.99
2023-04-10T06:20:43.899Z,9.15
2023-04-10T06:23:14.255Z,9.32
2023-04-10T06:25:44.382Z,9.45
2023-04-10T06:28:14.421Z,9.53
2023-04-10T06:30:46.636Z,9.63
2023-04-10T06:33:25.473Z,9.71
2023-04-10T06:35:56.245Z,9.76
2023-04-10T06:38:26.487Z,9.81
2023-04-10T06:40:56.496Z,9.85
2023-04-10T06:43:29.273Z,9.90
2023-04-10T06:45:59.317Z,9.95
2023-04-10T06:48:33.233Z,10.03
2023-04-10T06:51:03.880Z,10.14
2023-04-10T06:53:34.038Z,10.29
2023-04-10T06:56:04.029Z,10.52
2023-04-10T06:58:34.045Z,10.67
2023-04-10T07:01:05.181Z,10.80
2023-04-10T07:03:38.474Z,10.91
2023-04-10T07:06:09.002Z,10.97
2023-04-10T07:08:40.086Z,10.99
2023-04-10T07:11:10.156Z,11.02
2023-04-10T07:13:40.295Z,11.09
2023-04-10T07:16:12.766Z,11.20
2023-04-10T07:18:46.962Z,11.39
2023-04-10T07:21:17.385Z,11.63
2023-04-10T07:23:47.430Z,11.85
2023-04-10T07:26:17.892Z,12.06
2023-04-10T07:28:47.792Z,12.27
2023-04-10T07:31:18.329Z,12.44
2023-04-10T07:33:51.098Z,12.62
2023-04-10T07:36:20.930Z,12.75
2023-04-10T07:38:56.292Z,12.86
2023-04-10T07:41:26.376Z,12.97
2023-04-10T07:43:56.267Z,13.13
2023-04-10T07:46:26.948Z,13.29
2023-04-10T07:49:00.274Z,13.48
2023-04-10T07:51:32.780Z,13.65
2023-04-10T07:54:02.593Z,13.81
2023-04-10T07:56:33.100Z,13.93
2023-04-10T07:59:03.732Z,14.04
2023-04-10T08:01:35.554Z,14.14
2023-04-10T08:04:08.500Z,14.25
2023-04-10T08:06:47.236Z,14.34
2023-04-10T08:09:18.238Z,14.44
2023-04-10T08:11:48.413Z,14.49
2023-04-10T08:14:18.707Z,14.55
2023-04-10T08:16:48.818Z,14.56
2023-04-10T08:19:22.147Z,14.54
2023-04-10T08:21:52.033Z,14.60
2023-04-10T08:24:23.172Z,14.74
2023-04-10T08:26:53.072Z,14.87
2023-04-10T08:31:54.832Z,15.11
2023-04-10T08:34:27.409Z,15.25
2023-04-10T08:36:57.460Z,15.34
2023-04-10T08:39:27.642Z,15.39
2023-04-10T08:41:57.697Z,15.43
2023-04-10T08:44:27.561Z,15.45
2023-04-10T08:47:01.742Z,15.46
2023-04-10T08:49:45.420Z,15.50
2023-04-10T08:52:18.566Z,15.57
2023-04-10T08:54:59.266Z,15.65
2023-04-10T08:57:29.521Z,15.73
2023-04-10T09:00:06.738Z,15.77
2023-04-10T09:02:46.360Z,15.79
2023-04-10T09:05:18.965Z,15.79
2023-04-10T09:07:48.805Z,15.76
2023-04-10T09:10:18.958Z,15.78
2023-04-10T09:12:50.434Z,15.80
2023-04-10T09:15:20.299Z,15.82
2023-04-10T09:18:01.580Z,15.87
2023-04-10T09:20:35.324Z,15.86
2023-04-10T09:23:05.198Z,15.87
2023-04-10T09:25:39.210Z,15.91
2023-04-10T09:28:11.532Z,15.90
2023-04-10T09:30:43.529Z,15.94
2023-04-10T09:33:27.839Z,15.98
2023-04-10T09:36:01.771Z,16.01
2023-04-10T09:38:36.294Z,16.01
2023-04-10T09:41:10.953Z,16.06
2023-04-10T09:43:43.668Z,16.07
2023-04-10T09:46:13.592Z,16.10
2023-04-10T09:48:59.705Z,16.10
2023-04-10T09:51:36.700Z,16.10
2023-04-10T09:54:07.109Z,16.15
2023-04-10T09:56:41.915Z,16.17
2023-04-10T09:59:12.076Z,16.16
2023-04-10T10:01:42.910Z,16.16
2023-04-10T10:04:16.197Z,16.19
2023-04-10T10:06:49.357Z,16.24
2023-04-10T10:09:19.379Z,16.28
2023-04-10T10:11:51.596Z,16.30
2023-04-10T10:14:25.874Z,16.33
2023-04-10T10:17:02.591Z,16.33
2023-04-10T10:19:36.562Z,16.34
2023-04-10T10:22:10.433Z,16.32
2023-04-10T10:24:44.366Z,16.30
2023-04-10T10:27:15.123Z,16.29
2023-04-10T10:29:47.058Z,16.30
2023-04-10T10:32:19.568Z,16.30
2023-04-10T10:34:50.190Z,16.26
2023-04-10T10:37:23.122Z,16.26
2023-04-10T10:40:02.415Z,16.25
2023-04-10T10:42:39.674Z,16.24
2023-04-10T10:45:15.720Z,16.22
2023-04-10T10:48:01.896Z,16.22
2023-04-10T10:50:54.437Z,16.22
2023-04-10T10:53:41.137Z,16.21
2023-04-10T10:56:38.038Z,16.19
2023-04-10T10:59:07.868Z,16.17
2023-04-10T11:01:39.996Z,16.14
2023-04-10T11:04:39.752Z,16.15
2023-04-10T11:07:09.748Z,16.12
2023-04-10T11:09:54.706Z,16.09
2023-04-10T11:12:31.468Z,16.09
2023-04-10T11:15:03.263Z,16.08
2023-04-10T11:17:52.598Z,16.06
2023-04-10T11:20:27.552Z,16.05
2023-04-10T11:23:14.262Z,16.06
2023-04-10T11:25:54.794Z,16.07
2023-04-10T11:28:37.961Z,16.09
2023-04-10T11:31:22.284Z,16.13
2023-04-10T11:33:57.770Z,16.12
2023-04-10T11:36:30.919Z,16.12
2023-04-10T11:39:09.094Z,16.07
2023-04-10T11:41:43.157Z,16.06
2023-04-10T11:44:16.170Z,16.06
2023-04-10T11:46:48.042Z,16.07
2023-04-10T11:49:22.172Z,16.08
2023-04-10T11:51:53.395Z,16.08
2023-04-10T11:54:26.186Z,16.07
2023-04-10T11:57:03.750Z,16.14
2023-04-10T11:59:35.297Z,16.20
2023-04-10T12:02:10.451Z,16.30
2023-04-10T12:04:40.720Z,16.39
2023-04-10T12:07:11.552Z,16.51
2023-04-10T12:09:41.745Z,16.61
2023-04-10T12:12:15.496Z,16.73
2023-04-10T12:14:46.891Z,16.83
2023-04-10T12:17:17.126Z,16.89
2023-04-10T12:19:47.389Z,16.93
2023-04-10T12:22:17.374Z,16.97
2023-04-10T12:24:49.410Z,16.99
2023-04-10T12:27:23.837Z,16.99
2023-04-10T12:29:54.834Z,16.99
2023-04-10T12:32:25.216Z,16.96
2023-04-10T12:34:57.675Z,16.97
2023-04-10T12:37:27.940Z,16.96
2023-04-10T12:40:11.375Z,16.96
2023-04-10T12:42:49.842Z,16.92
2023-04-10T12:45:19.717Z,16.86
2023-04-10T12:47:52.019Z,16.82
2023-04-10T12:50:23.693Z,16.78
2023-04-10T12:53:07.740Z,16.77
2023-04-10T12:55:37.766Z,16.74
2023-04-10T12:58:23.042Z,16.70
2023-04-10T13:00:53.080Z,16.69
2023-04-10T13:03:23.031Z,16.67
2023-04-10T13:05:53.620Z,16.65
2023-04-10T13:08:24.123Z,16.64
2023-04-10T13:10:55.217Z,16.63
2023-04-10T13:13:28.425Z,16.62
2023-04-10T13:15:58.512Z,16.60
2023-04-10T13:18:28.427Z,16.58
2023-04-10T13:20:58.215Z,16.55
2023-04-10T13:23:28.053Z,16.53
2023-04-10T13:26:03.125Z,16.53
2023-04-10T13:28:37.117Z,16.52
2023-04-10T13:31:07.080Z,16.50
2023-04-10T13:33:36.940Z,16.51
2023-04-10T13:36:07.382Z,16.51
2023-04-10T13:38:37.262Z,16.51
2023-04-10T13:41:07.633Z,16.50
2023-04-10T13:43:40.298Z,16.47
2023-04-10T13:46:10.644Z,16.42
2023-04-10T13:48:41.868Z,16.39
2023-04-10T13:51:13.914Z,16.38
2023-04-10T13:53:43.787Z,16.37
2023-04-10T13:56:13.629Z,16.35
2023-04-10T13:58:48.762Z,16.34
2023-04-10T14:01:20.198Z,16.29
2023-04-10T14:03:50.294Z,16.26
2023-04-10T14:06:20.207Z,16.22
2023-04-10T14:08:50.449Z,16.21
2023-04-10T14:11:20.286Z,16.20
2023-04-10T14:13:52.771Z,16.15
2023-04-10T14:16:22.869Z,16.14
2023-04-10T14:18:52.979Z,16.11
2023-04-10T14:21:23.050Z,16.10
2023-04-10T14:23:52.829Z,16.07
2023-04-10T14:26:28.000Z,16.06
2023-04-10T14:29:00.431Z,16.04
2023-04-10T14:31:30.351Z,16.04
2023-04-10T14:34:00.197Z,15.99
2023-04-10T14:36:33.069Z,15.96
2023-04-10T14:39:07.724Z,15.96
2023-04-10T14:41:37.577Z,15.93
2023-04-10T14:44:09.995Z,15.92
2023-04-10T14:46:40.280Z,15.89
2023-04-10T14:49:11.974Z,15.86
2023-04-10T14:51:41.923Z,15.83
2023-04-10T14:54:11.735Z,15.78
2023-04-10T14:56:41.674Z,15.71
2023-04-10T14:59:14.910Z,15.62
2023-04-10T15:01:44.933Z,15.53
2023-04-10T15:04:14.964Z,15.47
2023-04-10T15:06:44.819Z,15.41
2023-04-10T15:09:14.726Z,15.32
2023-04-10T15:11:44.554Z,15.23
2023-04-10T15:14:17.019Z,15.17
2023-04-10T15:16:47.604Z,15.10
2023-04-10T15:19:17.466Z,15.03
2023-04-10T15:21:47.270Z,14.97
2023-04-10T15:24:20.216Z,14.90
2023-04-10T15:26:50.392Z,14.85
2023-04-10T15:29:22.910Z,14.79
2023-04-10T15:31:52.764Z,14.73
2023-04-10T15:34:22.680Z,14.66
2023-04-10T15:36:52.468Z,14.61
2023-04-10T15:39:25.354Z,14.55
2023-04-10T15:41:56.098Z,14.51
2023-04-10T15:44:30.892Z,14.45
2023-04-10T15:47:00.779Z,14.40
2023-04-10T15:49:37.712Z,14.36
2023-04-10T15:52:08.976Z,14.32
2023-04-10T15:54:38.825Z,14.29
2023-04-10T15:57:08.755Z,14.27
2023-04-10T15:59:41.234Z,14.25
2023-04-10T16:02:11.280Z,14.22
2023-04-10T16:04:41.339Z,14.19
2023-04-10T16:07:13.196Z,14.14
2023-04-10T16:09:42.989Z,14.08
2023-04-10T16:12:14.189Z,14.02
2023-04-10T16:14:48.175Z,13.96
2023-04-10T16:17:18.056Z,13.91
2023-04-10T16:19:47.954Z,13.88
2023-04-10T16:22:17.802Z,13.85
2023-04-10T16:24:47.609Z,13.81
2023-04-10T16:27:20.459Z,13.77
2023-04-10T16:29:52.984Z,13.70
2023-04-10T16:32:23.353Z,13.67
2023-04-10T16:34:53.278Z,13.61
2023-04-10T16:37:23.121Z,13.54
2023-04-10T16:39:53.001Z,13.49
2023-04-10T16:42:27.436Z,13.45
2023-04-10T16:45:02.271Z,13.40
2023-04-10T16:47:32.248Z,13.34
2023-04-10T16:50:02.101Z,13.27
2023-04-10T16:52:32.407Z,13.24
2023-04-10T16:55:02.252Z,13.21
2023-04-10T16:57:32.335Z,13.15
2023-04-10T17:00:04.944Z,13.08
2023-04-10T17:02:35.672Z,13.05
2023-04-10T17:05:05.579Z,13.01
2023-04-10T17:07:35.543Z,12.96
2023-04-10T17:10:05.366Z,12.94
2023-04-10T17:12:35.215Z,12.90
2023-04-10T17:15:08.564Z,12.86
2023-04-10T17:17:38.448Z,12.85
2023-04-10T17:20:13.193Z,12.82
2023-04-10T17:22:43.191Z,12.80
2023-04-10T17:25:13.925Z,12.80
2023-04-10T17:27:43.832Z,12.77
2023-04-10T17:30:19.794Z,12.79
2023-04-10T17:32:49.725Z,12.79
2023-04-10T17:35:19.661Z,12.81
2023-04-10T17:37:49.513Z,12.82
2023-04-10T17:40:21.272Z,12.85
2023-04-10T17:42:51.220Z,12.83
2023-04-10T17:45:23.842Z,12.82
2023-04-10T17:47:53.805Z,12.81
2023-04-10T17:50:23.972Z,12.79
2023-04-10T17:52:56.826Z,12.76
2023-04-10T17:55:27.808Z,12.73
2023-04-10T17:57:59.952Z,12.71
2023-04-10T18:00:32.808Z,12.69
2023-04-10T18:03:04.425Z,12.66
2023-04-10T18:05:36.941Z,12.63
2023-04-10T18:08:08.138Z,12.62
2023-04-10T18:10:38.072Z,12.59
2023-04-10T18:13:09.275Z,12.56
2023-04-10T18:15:41.666Z,12.54
2023-04-10T18:18:11.528Z,12.54
2023-04-10T18:20:41.404Z,12.52
2023-04-10T18:23:11.311Z,12.49
2023-04-10T18:25:45.696Z,12.49
2023-04-10T18:28:16.984Z,12.49
2023-04-10T18:30:50.688Z,12.48
2023-04-10T18:33:24.052Z,12.48
2023-04-10T18:35:58.373Z,12.48
2023-04-10T18:38:31.295Z,12.45
2023-04-10T18:41:03.461Z,12.43
2023-04-10T18:43:33.310Z,12.40
2023-04-10T18:46:07.342Z,12.39
2023-04-10T18:48:37.900Z,12.38
2023-04-10T18:51:07.943Z,12.38
2023-04-10T18:53:37.754Z,12.36
2023-04-10T18:56:08.016Z,12.37
2023-04-10T18:58:38.437Z,12.37
2023-04-10T19:01:11.953Z,12.34
2023-04-10T19:03:41.895Z,12.32
2023-04-10T19:06:12.445Z,12.31
2023-04-10T19:08:42.269Z,12.31
2023-04-10T19:11:13.328Z,12.31
2023-04-10T19:13:43.194Z,12.30
2023-04-10T19:16:19.717Z,12.30
2023-04-10T19:18:49.809Z,12.28
2023-04-10T19:21:21.223Z,12.28
2023-04-10T19:23:51.608Z,12.27
2023-04-10T19:26:22.277Z,12.28
2023-04-10T19:28:52.185Z,12.27
2023-04-10T19:31:34.202Z,12.28
2023-04-10T19:34:09.364Z,12.28
2023-04-10T19:36:39.372Z,12.28
2023-04-10T19:39:09.288Z,12.26
2023-04-10T19:41:42.404Z,12.24
2023-04-10T19:44:12.405Z,12.23
2023-04-10T19:46:44.886Z,12.23
2023-04-10T19:49:15.538Z,12.22
2023-04-10T19:51:46.154Z,12.19
2023-04-10T19:54:16.005Z,12.19
2023-04-10T19:56:45.940Z,12.20
2023-04-10T19:59:15.795Z,12.19
2023-04-10T20:01:48.836Z,12.20
2023-04-10T20:04:19.009Z,12.21
2023-04-10T20:06:49.523Z,12.20
2023-04-10T20:09:19.324Z,12.19
2023-04-10T20:11:49.135Z,12.16
2023-04-10T20:14:18.923Z,12.16
2023-04-10T20:16:51.397Z,12.15
2023-04-10T20:19:21.411Z,12.15
2023-04-10T20:21:51.212Z,12.15
2023-04-10T20:24:21.070Z,12.16
2023-04-10T20:26:50.971Z,12.17
2023-04-10T20:29:20.789Z,12.17
2023-04-10T20:31:53.205Z,12.16
2023-04-10T20:34:23.077Z,12.13
2023-04-10T20:36:52.899Z,12.13
2023-04-10T20:39:26.662Z,12.12
2023-04-10T20:41:57.453Z,12.08
2023-04-10T20:44:27.509Z,12.07
2023-04-10T20:47:00.006Z,12.07
2023-04-10T20:49:30.107Z,12.06
2023-04-10T20:52:00.036Z,12.04
2023-04-10T20:54:31.380Z,12.01
2023-04-10T20:57:02.013Z,11.97
2023-04-10T20:59:32.194Z,11.94
2023-04-10T21:02:04.661Z,11.91
2023-04-10T21:04:34.973Z,11.87
2023-04-10T21:07:07.093Z,11.83
2023-04-10T21:09:36.889Z,11.81
2023-04-10T21:12:07.533Z,11.80
2023-04-10T21:14:37.316Z,11.76
2023-04-10T21:17:09.818Z,11.71
2023-04-10T21:19:39.654Z,11.68
2023-04-10T21:22:10.496Z,11.67
2023-04-10T21:24:40.368Z,11.65
2023-04-10T21:27:10.401Z,11.62
2023-04-10T21:29:40.205Z,11.59
2023-04-10T21:32:12.641Z,11.55
2023-04-10T21:34:42.478Z,11.52
2023-04-10T21:37:12.313Z,11.52
2023-04-10T21:39:45.791Z,11.51
2023-04-10T21:42:15.656Z,11.51
2023-04-10T21:44:45.489Z,11.49
2023-04-10T21:47:17.934Z,11.52
2023-04-10T21:49:47.816Z,11.50
2023-04-10T21:52:17.619Z,11.51
2023-04-10T21:54:47.437Z,11.51
2023-04-10T21:57:17.238Z,11.52
2023-04-10T21:59:47.056Z,11.52
2023-04-10T22:02:21.217Z,11.53
2023-04-10T22:04:54.468Z,11.52
2023-04-10T22:07:24.832Z,11.50
2023-04-10T22:09:54.609Z,11.47
2023-04-10T22:12:24.417Z,11.46
2023-04-10T22:14:54.299Z,11.46
2023-04-10T22:17:27.407Z,11.44
2023-04-10T22:19:57.303Z,11.43
2023-04-10T22:22:27.238Z,11.41
2023-04-10T22:24:57.044Z,11.41
2023-04-10T22:27:27.042Z,11.40
2023-04-10T22:30:03.208Z,11.41
2023-04-10T22:32:39.966Z,11.39
2023-04-10T22:35:11.248Z,11.39
2023-04-10T22:37:41.080Z,11.36
2023-04-10T22:40:15.246Z,11.35
2023-04-10T22:42:47.256Z,11.31
2023-04-10T22:45:17.519Z,11.29
2023-04-10T22:47:49.930Z,11.29
2023-04-10T22:50:20.010Z,11.26
2023-04-10T22:52:49.940Z,11.24
2023-04-10T22:55:20.137Z,11.23
2023-04-10T22:57:51.217Z,11.22
2023-04-10T23:00:21.393Z,11.20
2023-04-10T23:02:53.872Z,11.20
2023-04-10T23:05:23.726Z,11.19
2023-04-10T23:07:53.531Z,11.18
2023-04-10T23:10:23.338Z,11.17
2023-04-10T23:12:53.134Z,11.17
2023-04-10T23:15:23.161Z,11.17
2023-04-10T23:17:56.045Z,11.17
2023-04-10T23:20:25.894Z,11.18
2023-04-10T23:22:57.705Z,11.17
2023-04-10T23:25:27.775Z,11.18
2023-04-10T23:27:59.620Z,11.17
2023-04-10T23:30:30.278Z,11.18
2023-04-10T23:33:03.059Z,11.17
2023-04-10T23:35:33.473Z,11.19
2023-04-10T23:38:03.347Z,11.20
2023-04-10T23:40:33.141Z,11.18
2023-04-10T23:43:03.005Z,11.18
2023-04-10T23:45:32.832Z,11.16
2023-04-10T23:48:06.102Z,11.15
2023-04-10T23:50:35.982Z,11.16
2023-04-10T23:53:08.794Z,11.12
2023-04-10T23:55:38.827Z,11.11
2023-04-10T23:58:09.430Z,11.07
